createdAt,value
2022-09-28T00:01:25.456Z,100.00
2022-09-28T00:03:57.519Z,100.00
2022-09-28T00:06:27.412Z,100.00
2022-09-28T00:08:54.839Z,100.00
2022-09-28T00:11:23.493Z,100.00
2022-09-28T00:13:52.920Z,100.00
2022-09-28T00:16:24.177Z,100.00
2022-09-28T00:18:51.588Z,100.00
2022-09-28T00:21:28.740Z,100.00
2022-09-28T00:24:14.869Z,100.00
2022-09-28T00:26:54.830Z,100.00
2022-09-28T00:29:34.424Z,100.00
2022-09-28T00:32:09.268Z,100.00
2022-09-28T00:34:45.678Z,100.00
2022-09-28T00:37:14.245Z,100.00
2022-09-28T00:39:41.649Z,100.00
2022-09-28T00:42:18.967Z,100.00
2022-09-28T00:44:59.613Z,100.00
2022-09-28T00:47:56.664Z,100.00
2022-09-28T00:50:33.094Z,100.00
2022-09-28T00:53:23.375Z,100.00
2022-09-28T00:56:07.568Z,100.00
2022-09-28T00:58:42.069Z,100.00
2022-09-28T01:01:09.012Z,100.00
2022-09-28T01:03:37.883Z,100.00
2022-09-28T01:06:06.719Z,100.00
2022-09-28T01:08:34.599Z,100.00
2022-09-28T01:11:02.165Z,100.00
2022-09-28T01:13:32.706Z,100.00
2022-09-28T01:16:19.943Z,100.00
2022-09-28T01:19:34.465Z,100.00
2022-09-28T01:22:27.479Z,100.00
2022-09-28T01:25:12.436Z,100.00
2022-09-28T01:28:04.386Z,100.00
2022-09-28T01:30:42.480Z,100.00
2022-09-28T01:33:19.218Z,100.00
2022-09-28T01:35:56.985Z,100.00
2022-09-28T01:38:31.980Z,100.00
2022-09-28T01:41:00.537Z,100.00
2022-09-28T01:43:29.594Z,100.00
2022-09-28T01:46:11.491Z,100.00
2022-09-28T01:48:49.276Z,100.00
2022-09-28T01:51:46.684Z,100.00
2022-09-28T01:54:25.866Z,100.00
2022-09-28T01:56:59.023Z,100.00
2022-09-28T01:59:29.747Z,100.00
2022-09-28T02:02:16.578Z,100.00
2022-09-28T02:04:50.665Z,100.00
2022-09-28T02:07:27.051Z,100.00
2022-09-28T02:10:10.835Z,100.00
2022-09-28T02:12:53.946Z,100.00
2022-09-28T02:15:28.045Z,100.00
2022-09-28T02:17:55.063Z,100.00
2022-09-28T02:20:23.940Z,100.00
2022-09-28T02:22:56.683Z,100.00
2022-09-28T02:25:49.743Z,100.00
2022-09-28T02:28:16.627Z,100.00
2022-09-28T02:30:44.718Z,100.00
2022-09-28T02:33:18.797Z,100.00
2022-09-28T02:35:45.921Z,100.00
2022-09-28T02:38:14.853Z,100.00
2022-09-28T02:41:05.337Z,100.00
2022-09-28T02:44:01.723Z,100.00
2022-09-28T02:46:45.087Z,100.00
2022-09-28T02:49:59.057Z,100.00
2022-09-28T02:53:03.296Z,100.00
2022-09-28T02:55:59.883Z,100.00
2022-09-28T02:58:50.836Z,100.00
2022-09-28T03:01:39.243Z,100.00
2022-09-28T03:04:32.531Z,100.00
2022-09-28T03:07:10.129Z,100.00
2022-09-28T03:10:17.622Z,100.00
2022-09-28T03:12:47.688Z,100.00
2022-09-28T03:15:31.481Z,100.00
2022-09-28T03:17:59.095Z,100.00
2022-09-28T03:20:27.732Z,100.00
2022-09-28T03:23:20.147Z,100.00
2022-09-28T03:25:42.557Z,100.00
2022-09-28T03:28:09.349Z,100.00
2022-09-28T03:30:36.179Z,100.00
2022-09-28T03:33:03.108Z,100.00
2022-09-28T03:35:29.953Z,100.00
2022-09-28T03:37:57.399Z,100.00
2022-09-28T03:40:24.617Z,100.00
2022-09-28T03:42:51.683Z,100.00
2022-09-28T03:45:18.655Z,100.00
2022-09-28T03:47:46.829Z,100.00
2022-09-28T03:50:15.385Z,100.00
2022-09-28T03:52:42.811Z,100.00
2022-09-28T03:55:10.831Z,100.00
2022-09-28T03:57:38.061Z,100.00
2022-09-28T04:00:06.348Z,100.00
2022-09-28T04:02:34.965Z,100.00
2022-09-28T04:05:02.356Z,100.00
2022-09-28T04:07:31.205Z,100.00
2022-09-28T04:09:58.265Z,100.00
2022-09-28T04:12:26.152Z,100.00
2022-09-28T04:14:53.159Z,100.00
2022-09-28T04:17:19.953Z,100.00
2022-09-28T04:19:47.343Z,100.00
2022-09-28T04:22:14.198Z,100.00
2022-09-28T04:24:43.419Z,100.00
2022-09-28T04:27:28.537Z,100.00
2022-09-28T04:29:55.347Z,100.00
2022-09-28T04:32:22.381Z,100.00
2022-09-28T04:34:49.507Z,100.00
2022-09-28T04:37:16.284Z,100.00
2022-09-28T04:39:46.289Z,100.00
2022-09-28T04:42:15.848Z,100.00
2022-09-28T04:44:43.076Z,100.00
2022-09-28T04:47:10.292Z,100.00
2022-09-28T04:49:38.296Z,100.00
2022-09-28T04:52:06.310Z,100.00
2022-09-28T04:54:33.172Z,100.00
2022-09-28T04:57:00.043Z,100.00
2022-09-28T04:59:26.944Z,100.00
2022-09-28T05:01:54.173Z,100.00
2022-09-28T05:04:25.634Z,100.00
2022-09-28T05:06:52.892Z,100.00
2022-09-28T05:09:19.796Z,100.00
2022-09-28T05:11:46.562Z,100.00
2022-09-28T05:14:13.494Z,100.00
2022-09-28T05:16:40.312Z,100.00
2022-09-28T05:19:07.195Z,100.00
2022-09-28T05:21:34.160Z,100.00
2022-09-28T05:24:01.285Z,100.00
2022-09-28T05:26:28.061Z,100.00
2022-09-28T05:28:54.881Z,100.00
2022-09-28T05:31:21.720Z,100.00
2022-09-28T05:33:49.129Z,100.00
2022-09-28T05:36:15.993Z,100.00
2022-09-28T05:38:42.808Z,100.00
2022-09-28T05:41:09.720Z,100.00
2022-09-28T05:43:36.835Z,100.00
2022-09-28T05:46:03.900Z,100.00
2022-09-28T05:48:31.010Z,100.00
2022-09-28T05:50:58.775Z,100.00
2022-09-28T05:53:25.839Z,100.00
2022-09-28T05:55:52.693Z,100.00
2022-09-28T05:58:19.642Z,100.00
2022-09-28T06:00:46.460Z,100.00
2022-09-28T06:03:14.657Z,100.00
2022-09-28T06:05:41.743Z,100.00
2022-09-28T06:08:13.055Z,100.00
2022-09-28T06:10:40.346Z,100.00
2022-09-28T06:13:07.937Z,100.00
2022-09-28T06:15:36.737Z,100.00
2022-09-28T06:18:15.935Z,100.00
2022-09-28T06:20:43.575Z,100.00
2022-09-28T06:23:12.069Z,100.00
2022-09-28T06:25:39.665Z,100.00
2022-09-28T06:28:11.091Z,100.00
2022-09-28T06:30:39.127Z,100.00
2022-09-28T06:33:08.283Z,100.00
2022-09-28T06:35:35.725Z,100.00
2022-09-28T06:38:02.929Z,100.00
2022-09-28T06:40:29.809Z,100.00
2022-09-28T06:43:02.525Z,100.00
2022-09-28T06:45:30.516Z,100.00
2022-09-28T06:48:00.396Z,100.00
2022-09-28T06:50:37.412Z,100.00
2022-09-28T06:53:06.961Z,100.00
2022-09-28T06:55:33.825Z,100.00
2022-09-28T06:58:07.463Z,100.00
2022-09-28T07:00:37.291Z,100.00
2022-09-28T07:03:13.900Z,100.00
2022-09-28T07:05:46.840Z,100.00
2022-09-28T07:08:14.811Z,100.00
2022-09-28T07:10:47.802Z,100.00
2022-09-28T07:13:41.688Z,100.00
2022-09-28T07:16:03.828Z,100.00
2022-09-28T07:18:30.735Z,100.00
2022-09-28T07:20:58.006Z,100.00
2022-09-28T07:23:29.534Z,100.00
2022-09-28T07:25:58.099Z,100.00
2022-09-28T07:28:25.368Z,100.00
2022-09-28T07:30:52.411Z,100.00
2022-09-28T07:33:19.339Z,100.00
2022-09-28T07:35:55.162Z,100.00
2022-09-28T07:38:22.358Z,100.00
2022-09-28T07:41:08.130Z,100.00
2022-09-28T07:43:35.319Z,100.00
2022-09-28T07:46:02.306Z,100.00
2022-09-28T07:48:37.709Z,100.00
2022-09-28T07:51:04.983Z,100.00
2022-09-28T07:53:31.834Z,100.00
2022-09-28T07:56:08.979Z,100.00
2022-09-28T07:58:38.350Z,100.00
2022-09-28T08:01:11.790Z,100.00
2022-09-28T08:03:39.330Z,100.00
2022-09-28T08:06:09.786Z,100.00
2022-09-28T08:08:37.033Z,100.00
2022-09-28T08:11:06.997Z,100.00
2022-09-28T08:13:33.880Z,100.00
2022-09-28T08:16:02.100Z,100.00
2022-09-28T08:18:29.282Z,100.00
2022-09-28T08:21:14.998Z,100.00
2022-09-28T08:23:41.927Z,100.00
2022-09-28T08:26:13.301Z,100.00
2022-09-28T08:28:43.484Z,100.00
2022-09-28T08:31:10.494Z,100.00
2022-09-28T08:33:37.451Z,100.00
2022-09-28T08:36:05.169Z,100.00
2022-09-28T08:38:32.749Z,100.00
2022-09-28T08:41:41.861Z,100.00
2022-09-28T08:44:24.922Z,100.00
2022-09-28T08:47:06.701Z,100.00
2022-09-28T08:49:45.098Z,100.00
2022-09-28T08:52:24.794Z,100.00
2022-09-28T08:55:10.018Z,100.00
2022-09-28T08:58:04.313Z,100.00
2022-09-28T09:00:45.584Z,100.00
2022-09-28T09:03:17.031Z,100.00
2022-09-28T09:06:18.823Z,100.00
2022-09-28T09:08:58.772Z,100.00
2022-09-28T09:12:14.204Z,100.00
2022-09-28T09:15:14.774Z,100.00
2022-09-28T09:18:11.312Z,100.00
2022-09-28T09:20:56.433Z,100.00
2022-09-28T09:23:46.489Z,100.00
2022-09-28T09:26:23.006Z,100.00
2022-09-28T09:29:32.453Z,100.00
2022-09-28T09:32:20.843Z,100.00
2022-09-28T09:35:31.593Z,100.00
2022-09-28T09:38:41.742Z,100.00
2022-09-28T09:44:19.873Z,100.00
2022-09-28T09:46:52.749Z,100.00
2022-09-28T09:49:30.907Z,100.00
2022-09-28T09:52:27.766Z,100.00
2022-09-28T09:55:04.179Z,100.00
2022-09-28T09:57:39.598Z,100.00
2022-09-28T10:00:14.591Z,100.00
2022-09-28T10:02:43.806Z,100.00
2022-09-28T10:05:13.610Z,100.00
2022-09-28T10:07:50.671Z,100.00
2022-09-28T10:10:33.448Z,100.00
2022-09-28T10:13:00.286Z,100.00
2022-09-28T10:15:30.431Z,100.00
2022-09-28T10:18:13.454Z,100.00
2022-09-28T10:20:43.439Z,100.00
2022-09-28T10:23:25.689Z,100.00
2022-09-28T10:25:59.275Z,100.00
2022-09-28T10:28:39.291Z,100.00
2022-09-28T10:31:50.584Z,100.00
2022-09-28T10:34:25.453Z,100.00
2022-09-28T10:37:03.332Z,100.00
2022-09-28T10:39:50.553Z,100.00
2022-09-28T10:42:26.473Z,100.00
2022-09-28T10:45:22.192Z,100.00
2022-09-28T10:47:50.267Z,100.00
2022-09-28T10:50:24.337Z,100.00
2022-09-28T10:52:51.114Z,100.00
2022-09-28T10:55:21.020Z,100.00
2022-09-28T10:57:48.387Z,100.00
2022-09-28T11:00:41.455Z,100.00
2022-09-28T11:03:21.422Z,100.00
2022-09-28T11:06:01.428Z,100.00
2022-09-28T11:08:50.111Z,100.00
2022-09-28T11:11:19.991Z,100.00
2022-09-28T11:13:57.145Z,100.00
2022-09-28T11:16:32.452Z,100.00
2022-09-28T11:19:05.498Z,100.00
2022-09-28T11:21:42.627Z,100.00
2022-09-28T11:24:18.904Z,100.00
2022-09-28T11:26:50.425Z,100.00
2022-09-28T11:29:34.843Z,100.00
2022-09-28T11:32:05.328Z,100.00
2022-09-28T11:34:58.743Z,100.00
2022-09-28T11:38:16.473Z,100.00
2022-09-28T11:41:18.646Z,100.00
2022-09-28T11:44:09.334Z,100.00
2022-09-28T11:46:48.044Z,100.00
2022-09-28T11:49:29.114Z,100.00
2022-09-28T11:52:01.128Z,100.00
2022-09-28T11:54:40.831Z,100.00
2022-09-28T11:57:16.753Z,100.00
2022-09-28T12:00:00.660Z,100.00
2022-09-28T12:02:46.151Z,100.00
2022-09-28T12:05:30.744Z,100.00
2022-09-28T12:08:15.953Z,100.00
2022-09-28T12:11:07.001Z,100.00
2022-09-28T12:13:40.231Z,100.00
2022-09-28T12:19:25.145Z,95.74
2022-09-28T12:22:02.424Z,95.90
2022-09-28T12:24:38.591Z,94.65
2022-09-28T12:27:29.473Z,97.89
2022-09-28T12:29:58.167Z,94.08
2022-09-28T12:32:51.720Z,96.62
2022-09-28T12:36:13.710Z,96.25
2022-09-28T12:39:57.584Z,90.81
2022-09-28T12:42:33.293Z,89.74
2022-09-28T12:46:09.927Z,93.80
2022-09-28T12:48:40.902Z,96.83
2022-09-28T12:51:35.656Z,89.93
2022-09-28T12:54:44.670Z,82.75
2022-09-28T12:57:49.901Z,84.91
2022-09-28T13:00:22.815Z,84.63
2022-09-28T13:02:55.480Z,87.30
2022-09-28T13:05:36.219Z,85.05
2022-09-28T13:08:33.924Z,84.88
2022-09-28T13:11:21.958Z,83.33
2022-09-28T13:14:16.386Z,81.28
2022-09-28T13:17:14.663Z,80.82
2022-09-28T13:20:01.823Z,80.57
2022-09-28T13:22:46.542Z,88.46
2022-09-28T13:25:20.899Z,79.89
2022-09-28T13:28:00.822Z,79.02
2022-09-28T13:30:27.731Z,80.22
2022-09-28T13:32:57.621Z,84.52
2022-09-28T13:35:25.077Z,83.25
2022-09-28T13:38:17.408Z,81.04
2022-09-28T13:41:09.243Z,85.88
2022-09-28T13:43:49.826Z,86.80
2022-09-28T13:47:02.520Z,88.00
2022-09-28T13:49:44.562Z,86.59
2022-09-28T13:52:56.906Z,85.69
2022-09-28T13:55:40.405Z,78.35
2022-09-28T13:58:25.368Z,78.97
2022-09-28T14:01:19.573Z,76.94
2022-09-28T14:04:19.982Z,74.83
2022-09-28T14:07:10.510Z,84.40
2022-09-28T14:09:45.881Z,81.37
2022-09-28T14:12:34.447Z,80.07
2022-09-28T14:15:05.138Z,81.24
2022-09-28T14:17:54.217Z,81.43
2022-09-28T14:20:24.965Z,72.88
2022-09-28T14:23:15.626Z,75.88
2022-09-28T14:26:03.967Z,73.21
2022-09-28T14:29:15.901Z,73.37
2022-09-28T14:31:43.759Z,74.96
2022-09-28T14:34:27.185Z,76.53
2022-09-28T14:37:12.474Z,77.99
2022-09-28T14:40:04.009Z,76.17
2022-09-28T14:42:31.182Z,76.04
2022-09-28T14:45:06.605Z,77.52
2022-09-28T14:47:42.740Z,78.76
2022-09-28T14:50:24.561Z,81.74
2022-09-28T14:52:55.536Z,83.12
2022-09-28T14:55:38.203Z,79.11
2022-09-28T14:58:07.698Z,75.55
2022-09-28T15:00:35.365Z,75.53
2022-09-28T15:03:08.935Z,74.92
2022-09-28T15:05:49.350Z,76.13
2022-09-28T15:08:20.931Z,78.84
2022-09-28T15:10:50.146Z,79.82
2022-09-28T15:13:27.631Z,79.25
2022-09-28T15:16:16.263Z,85.75
2022-09-28T15:19:15.586Z,79.97
2022-09-28T15:21:43.684Z,78.76
2022-09-28T15:24:32.753Z,75.17
2022-09-28T15:27:14.596Z,75.78
2022-09-28T15:29:41.389Z,76.55
2022-09-28T15:32:24.914Z,77.01
2022-09-28T15:34:51.790Z,78.72
2022-09-28T15:37:39.646Z,78.75
2022-09-28T15:40:16.685Z,80.47
2022-09-28T15:42:45.228Z,82.23
2022-09-28T15:45:31.970Z,87.39
2022-09-28T15:48:26.905Z,82.40
2022-09-28T15:51:11.661Z,87.83
2022-09-28T15:53:49.722Z,81.49
2022-09-28T15:56:16.563Z,80.65
2022-09-28T15:58:43.523Z,81.73
2022-09-28T16:01:36.521Z,81.94
2022-09-28T16:04:39.149Z,85.45
2022-09-28T16:07:29.073Z,90.30
2022-09-28T16:10:25.621Z,91.45
2022-09-28T16:13:06.580Z,93.37
2022-09-28T16:15:36.023Z,93.03
2022-09-28T16:18:25.651Z,94.14
2022-09-28T16:20:54.783Z,88.45
2022-09-28T16:23:27.414Z,90.87
2022-09-28T16:26:06.735Z,86.83
2022-09-28T16:28:34.602Z,91.99
2022-09-28T16:31:12.349Z,95.01
2022-09-28T16:33:58.825Z,97.23
2022-09-28T16:36:29.815Z,97.64
2022-09-28T16:38:57.035Z,97.99
2022-09-28T16:41:28.819Z,97.81
2022-09-28T16:44:00.957Z,99.18
2022-09-28T16:46:37.219Z,98.91
2022-09-28T16:49:06.088Z,98.35
2022-09-28T16:51:33.555Z,100.00
2022-09-28T16:54:34.436Z,100.00
2022-09-28T16:57:02.482Z,100.00
2022-09-28T16:59:29.678Z,100.00
2022-09-28T17:01:56.954Z,100.00
2022-09-28T17:04:25.346Z,100.00
2022-09-28T17:06:54.319Z,100.00
2022-09-28T17:09:22.274Z,100.00
2022-09-28T17:11:56.055Z,100.00
2022-09-28T17:14:23.939Z,100.00
2022-09-28T17:17:12.684Z,100.00
2022-09-28T17:19:41.093Z,100.00
2022-09-28T17:22:09.328Z,100.00
2022-09-28T17:24:36.815Z,100.00
2022-09-28T17:27:04.164Z,100.00
2022-09-28T17:29:32.594Z,100.00
2022-09-28T17:31:59.401Z,100.00
2022-09-28T17:34:26.317Z,100.00
2022-09-28T17:36:53.146Z,100.00
2022-09-28T17:39:21.417Z,100.00
2022-09-28T17:41:48.377Z,100.00
2022-09-28T17:44:16.220Z,100.00
2022-09-28T17:46:49.624Z,100.00
2022-09-28T17:49:17.137Z,100.00
2022-09-28T17:51:44.176Z,100.00
2022-09-28T17:54:13.048Z,100.00
2022-09-28T17:56:40.021Z,100.00
2022-09-28T17:59:17.670Z,100.00
2022-09-28T18:01:44.934Z,100.00
2022-09-28T18:04:33.250Z,100.00
2022-09-28T18:07:00.420Z,100.00
2022-09-28T18:09:27.545Z,100.00
2022-09-28T18:12:04.063Z,100.00
2022-09-28T18:14:30.925Z,100.00
2022-09-28T18:16:57.726Z,100.00
2022-09-28T18:19:27.521Z,100.00
2022-09-28T18:21:58.510Z,100.00
2022-09-28T18:24:25.402Z,100.00
2022-09-28T18:26:52.185Z,100.00
2022-09-28T18:29:18.971Z,100.00
2022-09-28T18:31:45.781Z,100.00
2022-09-28T18:34:13.547Z,100.00
2022-09-28T18:36:40.515Z,100.00
2022-09-28T18:39:07.347Z,100.00
2022-09-28T18:41:34.171Z,100.00
2022-09-28T18:44:01.200Z,100.00
2022-09-28T18:46:29.912Z,100.00
2022-09-28T18:48:56.940Z,100.00
2022-09-28T18:51:24.333Z,100.00
2022-09-28T18:53:51.241Z,100.00
2022-09-28T18:56:19.675Z,100.00
2022-09-28T18:58:48.364Z,100.00
2022-09-28T19:01:33.855Z,100.00
2022-09-28T19:04:07.842Z,100.00
2022-09-28T19:06:37.780Z,100.00
2022-09-28T19:09:04.843Z,100.00
2022-09-28T19:11:32.417Z,100.00
2022-09-28T19:13:59.617Z,100.00
2022-09-28T19:16:29.339Z,100.00
2022-09-28T19:18:58.220Z,100.00
2022-09-28T19:21:26.713Z,100.00
2022-09-28T19:23:55.315Z,100.00
2022-09-28T19:26:26.885Z,100.00
2022-09-28T19:28:56.001Z,100.00
2022-09-28T19:31:23.873Z,100.00
2022-09-28T19:33:50.790Z,100.00
2022-09-28T19:36:23.480Z,100.00
2022-09-28T19:38:52.806Z,100.00
2022-09-28T19:41:43.481Z,100.00
2022-09-28T19:44:27.354Z,100.00
2022-09-28T19:46:57.293Z,100.00
2022-09-28T19:49:26.842Z,100.00
2022-09-28T19:52:14.304Z,100.00
2022-09-28T19:54:54.435Z,100.00
2022-09-28T19:57:21.538Z,100.00
2022-09-28T19:59:52.370Z,100.00
2022-09-28T20:02:20.194Z,100.00
2022-09-28T20:04:47.354Z,100.00
2022-09-28T20:07:15.045Z,100.00
2022-09-28T20:09:42.216Z,100.00
2022-09-28T20:12:09.561Z,100.00
2022-09-28T20:14:39.476Z,100.00
2022-09-28T20:17:07.395Z,100.00
2022-09-28T20:19:34.963Z,100.00
2022-09-28T20:22:03.128Z,100.00
2022-09-28T20:24:31.358Z,100.00
2022-09-28T20:26:58.688Z,100.00
2022-09-28T20:29:25.566Z,100.00
2022-09-28T20:31:52.629Z,100.00
2022-09-28T20:34:19.486Z,100.00
2022-09-28T20:36:46.289Z,100.00
2022-09-28T20:39:13.498Z,100.00
2022-09-28T20:41:41.060Z,100.00
2022-09-28T20:44:07.920Z,100.00
2022-09-28T20:46:36.369Z,100.00
2022-09-28T20:49:05.109Z,100.00
2022-09-28T20:51:32.192Z,100.00
2022-09-28T20:53:59.551Z,100.00
2022-09-28T20:56:30.683Z,100.00
2022-09-28T20:58:57.737Z,100.00
2022-09-28T21:01:28.518Z,100.00
2022-09-28T21:04:04.188Z,100.00
2022-09-28T21:06:34.681Z,100.00
2022-09-28T21:09:02.136Z,100.00
2022-09-28T21:11:29.867Z,100.00
2022-09-28T21:14:00.016Z,100.00
2022-09-28T21:16:29.862Z,100.00
2022-09-28T21:18:56.665Z,100.00
2022-09-28T21:21:24.450Z,100.00
2022-09-28T21:23:58.661Z,100.00
2022-09-28T21:26:28.228Z,100.00
2022-09-28T21:29:03.141Z,100.00
2022-09-28T21:31:42.155Z,100.00
2022-09-28T21:34:20.853Z,100.00
2022-09-28T21:36:54.686Z,100.00
2022-09-28T21:39:21.668Z,100.00
2022-09-28T21:41:48.675Z,100.00
2022-09-28T21:44:15.699Z,100.00
2022-09-28T21:46:42.850Z,100.00
2022-09-28T21:49:10.749Z,100.00
2022-09-28T21:51:38.021Z,100.00
2022-09-28T21:54:05.143Z,100.00
2022-09-28T21:56:32.046Z,100.00
2022-09-28T21:58:58.948Z,100.00
2022-09-28T22:01:26.136Z,100.00
2022-09-28T22:03:55.669Z,100.00
2022-09-28T22:06:26.624Z,100.00
2022-09-28T22:08:53.568Z,100.00
2022-09-28T22:11:23.970Z,100.00
2022-09-28T22:13:57.864Z,100.00
2022-09-28T22:16:28.262Z,100.00
2022-09-28T22:18:55.397Z,100.00
2022-09-28T22:21:26.214Z,100.00
2022-09-28T22:23:53.473Z,100.00
2022-09-28T22:26:23.788Z,100.00
2022-09-28T22:28:56.491Z,100.00
2022-09-28T22:31:30.801Z,100.00
2022-09-28T22:33:58.066Z,100.00
2022-09-28T22:36:25.842Z,100.00
2022-09-28T22:38:54.505Z,100.00
2022-09-28T22:41:22.066Z,100.00
2022-09-28T22:43:50.982Z,100.00
2022-09-28T22:46:22.292Z,100.00
2022-09-28T22:48:52.714Z,100.00
2022-09-28T22:51:21.040Z,100.00
2022-09-28T22:53:48.256Z,100.00
2022-09-28T22:56:18.643Z,100.00
2022-09-28T22:58:46.449Z,100.00
2022-09-28T23:01:21.013Z,100.00
2022-09-28T23:03:49.376Z,100.00
2022-09-28T23:06:20.934Z,100.00
2022-09-28T23:08:49.235Z,100.00
2022-09-28T23:11:16.169Z,100.00
2022-09-28T23:13:47.906Z,100.00
2022-09-28T23:16:15.002Z,100.00
2022-09-28T23:18:42.178Z,100.00
2022-09-28T23:21:17.614Z,100.00
2022-09-28T23:23:46.005Z,100.00
2022-09-28T23:26:19.954Z,100.00
2022-09-28T23:28:46.915Z,100.00
2022-09-28T23:31:23.902Z,100.00
2022-09-28T23:33:51.437Z,100.00
2022-09-28T23:36:18.312Z,100.00
2022-09-28T23:38:45.326Z,100.00
2022-09-28T23:41:12.109Z,100.00
2022-09-28T23:43:38.960Z,100.00
2022-09-28T23:46:06.485Z,100.00
2022-09-28T23:48:33.911Z,100.00
2022-09-28T23:51:01.052Z,100.00
2022-09-28T23:53:28.597Z,100.00
2022-09-28T23:55:55.631Z,100.00
2022-09-28T23:58:22.751Z,100.00
